TAF Text Data
IDs:
Format:
Raw Decoded Include METAR

Data at: 1452 UTC 15 Oct 2018

KCNY 151353Z AUTO 25003KT 10SM CLR M02/M09 A3035 RMK AO2 SLP291 T10221089

KCNY 151130Z 1512/1612 VRB04KT P6SM SKC
  FM151500 06007KT P6SM SKC
  FM152300 03009KT P6SM SKC
  FM160200 33007KT P6SM SKC